Castle Hills, Texas
Current Conditions -  °F | °C
As of 8:51 PM on Sunday 21 Dec 2014 (Local Time) from KSAT Reporting Station
Overcast Overcast  
Wind Chill: 55°   Ceiling: 1800
Heat Index: 55°   Visibility: 10mi
Dew Point: 51°   Wind: 6mph
Humidity: 86%   Direction: 210°SSW
Pressure: 29.89"   Gusts: NA
Location:  29.5157°N, 98.5226°W
Report Text: KSAT 220251Z 21005KT 10SM SCT009 OVC018 13/11 A2989 RMK AO2 SLP109 T01280106 58006
Loading
Personal Weather Stations






























Interactive Weather Map New forecast layout! Learn more

10-Day Weather Forecast

Advertisements
Track Severe Weather on mobile